Corelli — 9HZQ8 — position and weather

sailwx.info

Track history (hours):
 
Tides and Currents Weather Stations Pressure Air Temp Water Temp Dewpoint Dewpoint Depression Visibility Wind Speed Wind Dir Waves Ship Positions

Corelli

Last reported at 2018-Feb-19 02:00 UTC. Time now 2018-Feb-19 02:14 UTC.
Position N 37°52' W 009°09'.

Length 169 m; draft 5.8 m.

Type: Cargo ship. MMSI: 256648000.

Date/timePositionNaut miles runAvg speedWind from/ knotsBaromVisibWave heightAir tempDewpointWater temp
2018-Feb-19 02:00N 37°52' W 009°09'510.7
2018-Feb-19 01:30N 37°47' W 009°10'510.5
2018-Feb-19 01:00N 37°42' W 009°12'510.5
2018-Feb-19 00:30N 37°37' W 009°13'610.5
2018-Feb-18 23:58N 37°31' W 009°14'610.6
2018-Feb-18 23:23N 37°25' W 009°15'510.5
2018-Feb-18 22:56N 37°20' W 009°15'510.7
2018-Feb-18 22:29N 37°15' W 009°17'39 8.4
2018-Feb-18 17:51N 36°41' W 008°55'  
2018-Feb-12 14:21N 35°57' W 005°34'411.2
2018-Feb-12 14:00N 35°59' W 005°29'510.5
2018-Feb-12 13:30N 36°00' W 005°23'5 9.8
2018-Feb-12 13:00N 36°01' W 005°17'5 9.1
2018-Feb-12 12:30N 36°02' W 005°11'210 9.9
2018-Feb-11 15:15N 37°12' W 001°05'310.0
2018-Feb-11 14:58N 37°14' W 001°02'510.2
2018-Feb-11 14:30N 37°18' W 000°58'510.4
2018-Feb-11 13:59N 37°21' W 000°53'510.4
2018-Feb-11 13:30N 37°24' W 000°48'610.5
2018-Feb-11 12:58N 37°28' W 000°42'5 9.8
2018-Feb-11 12:28N 37°31' W 000°38'5 9.7
2018-Feb-11 12:00N 37°34' W 000°34'5 9.7
2018-Feb-11 11:30N 37°38' W 000°30'5 9.9
2018-Feb-11 11:00N 37°42' W 000°26'9 9.7
2018-Feb-11 10:06N 37°50' W 000°20'1 9.7
2018-Feb-11 09:58N 37°51' W 000°20'55411.6
2018-Feb-09 10:00N 44°07' E 008°39'1514.5
2018-Feb-09 09:00N 44°17' E 008°54'7 7.2
2018-Feb-09 08:00N 44°24' E 008°53'0 0.1
2018-Feb-09 07:30N 44°24' E 008°53'0 0.0
2018-Feb-09 06:30N 44°24' E 008°53'0 0.0
2018-Feb-09 02:30N 44°24' E 008°53'  
Track history (hours):
 
Tides and Currents Weather Stations Pressure Air Temp Water Temp Dewpoint Dewpoint Depression Visibility Wind Speed Wind Dir Waves Ship Positions

Corelli

Last reported at 2018-Feb-19 02:00 UTC. Time now 2018-Feb-19 02:14 UTC.
Position N 37°52' W 009°09'.

Length 169 m; draft 5.8 m.

Type: Cargo ship. MMSI: 256648000.

Date/timePositionNaut miles runAvg speedWind from/ knotsBaromVisibWave heightAir tempDewpointWater temp
2018-Feb-19 02:00N 37°52' W 009°09'510.7
2018-Feb-19 01:30N 37°47' W 009°10'510.5
2018-Feb-19 01:00N 37°42' W 009°12'510.5
2018-Feb-19 00:30N 37°37' W 009°13'610.5
2018-Feb-18 23:58N 37°31' W 009°14'610.6
2018-Feb-18 23:23N 37°25' W 009°15'510.5
2018-Feb-18 22:56N 37°20' W 009°15'510.7
2018-Feb-18 22:29N 37°15' W 009°17'39 8.4
2018-Feb-18 17:51N 36°41' W 008°55'  
2018-Feb-12 14:21N 35°57' W 005°34'411.2
2018-Feb-12 14:00N 35°59' W 005°29'510.5
2018-Feb-12 13:30N 36°00' W 005°23'5 9.8
2018-Feb-12 13:00N 36°01' W 005°17'5 9.1
2018-Feb-12 12:30N 36°02' W 005°11'210 9.9
2018-Feb-11 15:15N 37°12' W 001°05'310.0
2018-Feb-11 14:58N 37°14' W 001°02'510.2
2018-Feb-11 14:30N 37°18' W 000°58'510.4
2018-Feb-11 13:59N 37°21' W 000°53'510.4
2018-Feb-11 13:30N 37°24' W 000°48'610.5
2018-Feb-11 12:58N 37°28' W 000°42'5 9.8
2018-Feb-11 12:28N 37°31' W 000°38'5 9.7
2018-Feb-11 12:00N 37°34' W 000°34'5 9.7
2018-Feb-11 11:30N 37°38' W 000°30'5 9.9
2018-Feb-11 11:00N 37°42' W 000°26'9 9.7
2018-Feb-11 10:06N 37°50' W 000°20'1 9.7
2018-Feb-11 09:58N 37°51' W 000°20'55411.6
2018-Feb-09 10:00N 44°07' E 008°39'1514.5
2018-Feb-09 09:00N 44°17' E 008°54'7 7.2
2018-Feb-09 08:00N 44°24' E 008°53'0 0.1
2018-Feb-09 07:30N 44°24' E 008°53'0 0.0
2018-Feb-09 06:30N 44°24' E 008°53'0 0.0
2018-Feb-09 02:30N 44°24' E 008°53'  

Dump ship's entire track history